<?xml version="1.0" encoding="UTF-8" standalone="no" ?>
<gpx xmlns="http://www.topografix.com/GPX/1/1" xmlns:xsi="http://www.w3.org/2001/XMLSchema-instance" xsi:schemaLocation="http://www.topografix.com/GPX/1/1 http://www.topografix.com/GPX/1/1/gpx.xsd" version="1.1" creator="VisuGPX - https://www.visugpx.com">
  <metadata>
    <name>Bouconne en Battut 7.6 Km VOK</name>
    <desc><![CDATA[
Total: 7.6km]]></desc>
  </metadata>
  <trk>
    <name><![CDATA[Randonnée du 25/05/2020 à 14:07]]></name>
    <desc><![CDATA[Total: 7.6km]]></desc>
    <trkseg>
      <trkpt lat="43.59864" lon="1.18635">
        <ele>224</ele>
        <time>2020-05-25T16:15:29Z</time>
      </trkpt>
      <trkpt lat="43.59853" lon="1.18644">
        <ele>237</ele>
        <time>2020-05-25T16:15:42Z</time>
      </trkpt>
      <trkpt lat="43.59862" lon="1.18649">
        <ele>235</ele>
        <time>2020-05-25T16:15:50Z</time>
      </trkpt>
      <trkpt lat="43.59867" lon="1.18639">
        <ele>232</ele>
        <time>2020-05-25T16:15:57Z</time>
      </trkpt>
      <trkpt lat="43.59859" lon="1.18633">
        <ele>225</ele>
        <time>2020-05-25T16:16:06Z</time>
      </trkpt>
      <trkpt lat="43.59851" lon="1.18624">
        <ele>225</ele>
        <time>2020-05-25T16:16:14Z</time>
      </trkpt>
      <trkpt lat="43.59842" lon="1.18617">
        <ele>224</ele>
        <time>2020-05-25T16:16:21Z</time>
      </trkpt>
      <trkpt lat="43.59834" lon="1.18611">
        <ele>224</ele>
        <time>2020-05-25T16:16:28Z</time>
      </trkpt>
      <trkpt lat="43.59825" lon="1.186">
        <ele>222</ele>
        <time>2020-05-25T16:16:37Z</time>
      </trkpt>
      <trkpt lat="43.59815" lon="1.18596">
        <ele>221</ele>
        <time>2020-05-25T16:16:46Z</time>
      </trkpt>
      <trkpt lat="43.59807" lon="1.18586">
        <ele>220</ele>
        <time>2020-05-25T16:16:54Z</time>
      </trkpt>
      <trkpt lat="43.59799" lon="1.18578">
        <ele>219</ele>
        <time>2020-05-25T16:17:02Z</time>
      </trkpt>
      <trkpt lat="43.59791" lon="1.1857">
        <ele>218</ele>
        <time>2020-05-25T16:17:09Z</time>
      </trkpt>
      <trkpt lat="43.59782" lon="1.18563">
        <ele>217</ele>
        <time>2020-05-25T16:17:18Z</time>
      </trkpt>
      <trkpt lat="43.59772" lon="1.18558">
        <ele>217</ele>
        <time>2020-05-25T16:17:25Z</time>
      </trkpt>
      <trkpt lat="43.59764" lon="1.18551">
        <ele>216</ele>
        <time>2020-05-25T16:17:32Z</time>
      </trkpt>
      <trkpt lat="43.59757" lon="1.18543">
        <ele>213</ele>
        <time>2020-05-25T16:17:40Z</time>
      </trkpt>
      <trkpt lat="43.5975" lon="1.18535">
        <ele>213</ele>
        <time>2020-05-25T16:17:47Z</time>
      </trkpt>
      <trkpt lat="43.59742" lon="1.18526">
        <ele>211</ele>
        <time>2020-05-25T16:17:55Z</time>
      </trkpt>
      <trkpt lat="43.59733" lon="1.18526">
        <ele>210</ele>
        <time>2020-05-25T16:18:02Z</time>
      </trkpt>
      <trkpt lat="43.59717" lon="1.1851">
        <ele>241.8</ele>
        <time>2020-05-25T16:18:17Z</time>
      </trkpt>
      <trkpt lat="43.5971" lon="1.18504">
        <ele>241.6</ele>
        <time>2020-05-25T16:18:24Z</time>
      </trkpt>
      <trkpt lat="43.59701" lon="1.18487">
        <ele>241.2</ele>
        <time>2020-05-25T16:18:36Z</time>
      </trkpt>
      <trkpt lat="43.59702" lon="1.18476">
        <ele>241.3</ele>
        <time>2020-05-25T16:18:42Z</time>
      </trkpt>
      <trkpt lat="43.59704" lon="1.18459">
        <ele>240.8</ele>
        <time>2020-05-25T16:18:51Z</time>
      </trkpt>
      <trkpt lat="43.59705" lon="1.18442">
        <ele>240.4</ele>
        <time>2020-05-25T16:19:01Z</time>
      </trkpt>
      <trkpt lat="43.59723" lon="1.18395">
        <ele>242</ele>
        <time>2020-05-25T16:19:31Z</time>
      </trkpt>
      <trkpt lat="43.59727" lon="1.18378">
        <ele>194</ele>
        <time>2020-05-25T16:19:40Z</time>
      </trkpt>
      <trkpt lat="43.59731" lon="1.18367">
        <ele>194</ele>
        <time>2020-05-25T16:19:47Z</time>
      </trkpt>
      <trkpt lat="43.59735" lon="1.18354">
        <ele>193</ele>
        <time>2020-05-25T16:19:55Z</time>
      </trkpt>
      <trkpt lat="43.59742" lon="1.18278">
        <ele>243.7</ele>
        <time>2020-05-25T16:20:38Z</time>
      </trkpt>
      <trkpt lat="43.59746" lon="1.18252">
        <ele>195</ele>
        <time>2020-05-25T16:20:53Z</time>
      </trkpt>
      <trkpt lat="43.59752" lon="1.18242">
        <ele>196</ele>
        <time>2020-05-25T16:21:00Z</time>
      </trkpt>
      <trkpt lat="43.59754" lon="1.18229">
        <ele>198</ele>
        <time>2020-05-25T16:21:07Z</time>
      </trkpt>
      <trkpt lat="43.59754" lon="1.18216">
        <ele>199</ele>
        <time>2020-05-25T16:21:15Z</time>
      </trkpt>
      <trkpt lat="43.59753" lon="1.18202">
        <ele>201</ele>
        <time>2020-05-25T16:21:23Z</time>
      </trkpt>
      <trkpt lat="43.59754" lon="1.18189">
        <ele>203</ele>
        <time>2020-05-25T16:21:30Z</time>
      </trkpt>
      <trkpt lat="43.59753" lon="1.18176">
        <ele>206</ele>
        <time>2020-05-25T16:21:38Z</time>
      </trkpt>
      <trkpt lat="43.5975" lon="1.18163">
        <ele>211</ele>
        <time>2020-05-25T16:21:46Z</time>
      </trkpt>
      <trkpt lat="43.59746" lon="1.18152">
        <ele>215</ele>
        <time>2020-05-25T16:21:54Z</time>
      </trkpt>
      <trkpt lat="43.59743" lon="1.1814">
        <ele>221</ele>
        <time>2020-05-25T16:22:02Z</time>
      </trkpt>
      <trkpt lat="43.59747" lon="1.18128">
        <ele>225</ele>
        <time>2020-05-25T16:22:10Z</time>
      </trkpt>
      <trkpt lat="43.59746" lon="1.18114">
        <ele>229</ele>
        <time>2020-05-25T16:22:18Z</time>
      </trkpt>
      <trkpt lat="43.59745" lon="1.18101">
        <ele>233</ele>
        <time>2020-05-25T16:22:26Z</time>
      </trkpt>
      <trkpt lat="43.59743" lon="1.18087">
        <ele>239</ele>
        <time>2020-05-25T16:22:35Z</time>
      </trkpt>
      <trkpt lat="43.59741" lon="1.18075">
        <ele>242</ele>
        <time>2020-05-25T16:22:42Z</time>
      </trkpt>
      <trkpt lat="43.59737" lon="1.18063">
        <ele>245</ele>
        <time>2020-05-25T16:22:50Z</time>
      </trkpt>
      <trkpt lat="43.59734" lon="1.1805">
        <ele>250</ele>
        <time>2020-05-25T16:22:58Z</time>
      </trkpt>
      <trkpt lat="43.59732" lon="1.18035">
        <ele>255</ele>
        <time>2020-05-25T16:23:07Z</time>
      </trkpt>
      <trkpt lat="43.59733" lon="1.18023">
        <ele>259</ele>
        <time>2020-05-25T16:23:15Z</time>
      </trkpt>
      <trkpt lat="43.59731" lon="1.1801">
        <ele>262</ele>
        <time>2020-05-25T16:23:22Z</time>
      </trkpt>
      <trkpt lat="43.59732" lon="1.17998">
        <ele>267</ele>
        <time>2020-05-25T16:23:30Z</time>
      </trkpt>
      <trkpt lat="43.59731" lon="1.17985">
        <ele>268</ele>
        <time>2020-05-25T16:23:37Z</time>
      </trkpt>
      <trkpt lat="43.59732" lon="1.17972">
        <ele>270</ele>
        <time>2020-05-25T16:23:45Z</time>
      </trkpt>
      <trkpt lat="43.59732" lon="1.17959">
        <ele>272</ele>
        <time>2020-05-25T16:23:52Z</time>
      </trkpt>
      <trkpt lat="43.59733" lon="1.17944">
        <ele>276</ele>
        <time>2020-05-25T16:24:01Z</time>
      </trkpt>
      <trkpt lat="43.59732" lon="1.1793">
        <ele>277</ele>
        <time>2020-05-25T16:24:09Z</time>
      </trkpt>
      <trkpt lat="43.5973" lon="1.17916">
        <ele>279</ele>
        <time>2020-05-25T16:24:17Z</time>
      </trkpt>
      <trkpt lat="43.5973" lon="1.17903">
        <ele>283</ele>
        <time>2020-05-25T16:24:25Z</time>
      </trkpt>
      <trkpt lat="43.5973" lon="1.1789">
        <ele>284</ele>
        <time>2020-05-25T16:24:32Z</time>
      </trkpt>
      <trkpt lat="43.59728" lon="1.17878">
        <ele>280</ele>
        <time>2020-05-25T16:24:40Z</time>
      </trkpt>
      <trkpt lat="43.59727" lon="1.17864">
        <ele>278</ele>
        <time>2020-05-25T16:24:47Z</time>
      </trkpt>
      <trkpt lat="43.59728" lon="1.17851">
        <ele>275</ele>
        <time>2020-05-25T16:24:55Z</time>
      </trkpt>
      <trkpt lat="43.5973" lon="1.17836">
        <ele>271</ele>
        <time>2020-05-25T16:25:04Z</time>
      </trkpt>
      <trkpt lat="43.59733" lon="1.17822">
        <ele>268</ele>
        <time>2020-05-25T16:25:13Z</time>
      </trkpt>
      <trkpt lat="43.59732" lon="1.17808">
        <ele>265</ele>
        <time>2020-05-25T16:25:21Z</time>
      </trkpt>
      <trkpt lat="43.59733" lon="1.17795">
        <ele>260</ele>
        <time>2020-05-25T16:25:29Z</time>
      </trkpt>
      <trkpt lat="43.59738" lon="1.17784">
        <ele>256</ele>
        <time>2020-05-25T16:25:36Z</time>
      </trkpt>
      <trkpt lat="43.59742" lon="1.17771">
        <ele>247</ele>
        <time>2020-05-25T16:25:46Z</time>
      </trkpt>
      <trkpt lat="43.59739" lon="1.17758">
        <ele>240</ele>
        <time>2020-05-25T16:25:56Z</time>
      </trkpt>
      <trkpt lat="43.59738" lon="1.17745">
        <ele>238</ele>
        <time>2020-05-25T16:26:03Z</time>
      </trkpt>
      <trkpt lat="43.59736" lon="1.17731">
        <ele>236</ele>
        <time>2020-05-25T16:26:11Z</time>
      </trkpt>
      <trkpt lat="43.59733" lon="1.17718">
        <ele>235</ele>
        <time>2020-05-25T16:26:19Z</time>
      </trkpt>
      <trkpt lat="43.59732" lon="1.17704">
        <ele>234</ele>
        <time>2020-05-25T16:26:27Z</time>
      </trkpt>
      <trkpt lat="43.59732" lon="1.17689">
        <ele>235</ele>
        <time>2020-05-25T16:26:35Z</time>
      </trkpt>
      <trkpt lat="43.59735" lon="1.17675">
        <ele>235</ele>
        <time>2020-05-25T16:26:43Z</time>
      </trkpt>
      <trkpt lat="43.59742" lon="1.17666">
        <ele>237</ele>
        <time>2020-05-25T16:26:50Z</time>
      </trkpt>
      <trkpt lat="43.59747" lon="1.17654">
        <ele>237</ele>
        <time>2020-05-25T16:26:58Z</time>
      </trkpt>
      <trkpt lat="43.59752" lon="1.17641">
        <ele>237</ele>
        <time>2020-05-25T16:27:06Z</time>
      </trkpt>
      <trkpt lat="43.59755" lon="1.17629">
        <ele>238</ele>
        <time>2020-05-25T16:27:14Z</time>
      </trkpt>
      <trkpt lat="43.5976" lon="1.17618">
        <ele>240</ele>
        <time>2020-05-25T16:27:21Z</time>
      </trkpt>
      <trkpt lat="43.59763" lon="1.17604">
        <ele>242</ele>
        <time>2020-05-25T16:27:30Z</time>
      </trkpt>
      <trkpt lat="43.59763" lon="1.17589">
        <ele>246</ele>
        <time>2020-05-25T16:27:38Z</time>
      </trkpt>
      <trkpt lat="43.59766" lon="1.17576">
        <ele>251</ele>
        <time>2020-05-25T16:27:47Z</time>
      </trkpt>
      <trkpt lat="43.59766" lon="1.17562">
        <ele>257</ele>
        <time>2020-05-25T16:27:56Z</time>
      </trkpt>
      <trkpt lat="43.59768" lon="1.1755">
        <ele>262</ele>
        <time>2020-05-25T16:28:03Z</time>
      </trkpt>
      <trkpt lat="43.59774" lon="1.17538">
        <ele>267</ele>
        <time>2020-05-25T16:28:12Z</time>
      </trkpt>
      <trkpt lat="43.5978" lon="1.17528">
        <ele>270</ele>
        <time>2020-05-25T16:28:20Z</time>
      </trkpt>
      <trkpt lat="43.59784" lon="1.17515">
        <ele>272</ele>
        <time>2020-05-25T16:28:28Z</time>
      </trkpt>
      <trkpt lat="43.59783" lon="1.17502">
        <ele>274</ele>
        <time>2020-05-25T16:28:35Z</time>
      </trkpt>
      <trkpt lat="43.59783" lon="1.17488">
        <ele>278</ele>
        <time>2020-05-25T16:28:44Z</time>
      </trkpt>
      <trkpt lat="43.59783" lon="1.17474">
        <ele>281</ele>
        <time>2020-05-25T16:28:51Z</time>
      </trkpt>
      <trkpt lat="43.59784" lon="1.17462">
        <ele>282</ele>
        <time>2020-05-25T16:28:58Z</time>
      </trkpt>
      <trkpt lat="43.59786" lon="1.17449">
        <ele>283</ele>
        <time>2020-05-25T16:29:06Z</time>
      </trkpt>
      <trkpt lat="43.59792" lon="1.17438">
        <ele>283</ele>
        <time>2020-05-25T16:29:13Z</time>
      </trkpt>
      <trkpt lat="43.59797" lon="1.17427">
        <ele>284</ele>
        <time>2020-05-25T16:29:21Z</time>
      </trkpt>
      <trkpt lat="43.59802" lon="1.17416">
        <ele>284</ele>
        <time>2020-05-25T16:29:28Z</time>
      </trkpt>
      <trkpt lat="43.59809" lon="1.17407">
        <ele>282</ele>
        <time>2020-05-25T16:29:36Z</time>
      </trkpt>
      <trkpt lat="43.59816" lon="1.17398">
        <ele>283</ele>
        <time>2020-05-25T16:29:43Z</time>
      </trkpt>
      <trkpt lat="43.59825" lon="1.17389">
        <ele>282</ele>
        <time>2020-05-25T16:29:51Z</time>
      </trkpt>
      <trkpt lat="43.59834" lon="1.17383">
        <ele>281</ele>
        <time>2020-05-25T16:29:59Z</time>
      </trkpt>
      <trkpt lat="43.59844" lon="1.17383">
        <ele>280</ele>
        <time>2020-05-25T16:30:07Z</time>
      </trkpt>
      <trkpt lat="43.59852" lon="1.17377">
        <ele>279</ele>
        <time>2020-05-25T16:30:14Z</time>
      </trkpt>
      <trkpt lat="43.59858" lon="1.17368">
        <ele>277</ele>
        <time>2020-05-25T16:30:21Z</time>
      </trkpt>
      <trkpt lat="43.59861" lon="1.17354">
        <ele>274</ele>
        <time>2020-05-25T16:30:29Z</time>
      </trkpt>
      <trkpt lat="43.59868" lon="1.17345">
        <ele>272</ele>
        <time>2020-05-25T16:30:37Z</time>
      </trkpt>
      <trkpt lat="43.59875" lon="1.17335">
        <ele>272</ele>
        <time>2020-05-25T16:30:45Z</time>
      </trkpt>
      <trkpt lat="43.59882" lon="1.17325">
        <ele>272</ele>
        <time>2020-05-25T16:30:53Z</time>
      </trkpt>
      <trkpt lat="43.59888" lon="1.17313">
        <ele>271</ele>
        <time>2020-05-25T16:31:00Z</time>
      </trkpt>
      <trkpt lat="43.59895" lon="1.17303">
        <ele>265</ele>
        <time>2020-05-25T16:31:09Z</time>
      </trkpt>
      <trkpt lat="43.59899" lon="1.17288">
        <ele>258</ele>
        <time>2020-05-25T16:31:19Z</time>
      </trkpt>
      <trkpt lat="43.59903" lon="1.17276">
        <ele>246</ele>
        <time>2020-05-25T16:31:30Z</time>
      </trkpt>
      <trkpt lat="43.59908" lon="1.17266">
        <ele>243</ele>
        <time>2020-05-25T16:31:38Z</time>
      </trkpt>
      <trkpt lat="43.59914" lon="1.17255">
        <ele>241</ele>
        <time>2020-05-25T16:31:46Z</time>
      </trkpt>
      <trkpt lat="43.59924" lon="1.1725">
        <ele>238</ele>
        <time>2020-05-25T16:31:54Z</time>
      </trkpt>
      <trkpt lat="43.59933" lon="1.17244">
        <ele>237</ele>
        <time>2020-05-25T16:32:01Z</time>
      </trkpt>
      <trkpt lat="43.59939" lon="1.17233">
        <ele>234</ele>
        <time>2020-05-25T16:32:09Z</time>
      </trkpt>
      <trkpt lat="43.59942" lon="1.17221">
        <ele>234</ele>
        <time>2020-05-25T16:32:17Z</time>
      </trkpt>
      <trkpt lat="43.59943" lon="1.17208">
        <ele>233</ele>
        <time>2020-05-25T16:32:24Z</time>
      </trkpt>
      <trkpt lat="43.59947" lon="1.17195">
        <ele>231</ele>
        <time>2020-05-25T16:32:32Z</time>
      </trkpt>
      <trkpt lat="43.59949" lon="1.17183">
        <ele>229</ele>
        <time>2020-05-25T16:32:39Z</time>
      </trkpt>
      <trkpt lat="43.59954" lon="1.1717">
        <ele>228</ele>
        <time>2020-05-25T16:32:47Z</time>
      </trkpt>
      <trkpt lat="43.59955" lon="1.17158">
        <ele>228</ele>
        <time>2020-05-25T16:32:54Z</time>
      </trkpt>
      <trkpt lat="43.59958" lon="1.17145">
        <ele>228</ele>
        <time>2020-05-25T16:33:02Z</time>
      </trkpt>
      <trkpt lat="43.59962" lon="1.17132">
        <ele>232</ele>
        <time>2020-05-25T16:33:10Z</time>
      </trkpt>
      <trkpt lat="43.5997" lon="1.17123">
        <ele>237</ele>
        <time>2020-05-25T16:33:18Z</time>
      </trkpt>
      <trkpt lat="43.59978" lon="1.17117">
        <ele>243</ele>
        <time>2020-05-25T16:33:27Z</time>
      </trkpt>
      <trkpt lat="43.59986" lon="1.17109">
        <ele>245</ele>
        <time>2020-05-25T16:33:35Z</time>
      </trkpt>
      <trkpt lat="43.59995" lon="1.17099">
        <ele>247</ele>
        <time>2020-05-25T16:33:43Z</time>
      </trkpt>
      <trkpt lat="43.6" lon="1.17088">
        <ele>249</ele>
        <time>2020-05-25T16:33:51Z</time>
      </trkpt>
      <trkpt lat="43.60009" lon="1.1708">
        <ele>251</ele>
        <time>2020-05-25T16:33:59Z</time>
      </trkpt>
      <trkpt lat="43.60016" lon="1.17071">
        <ele>255</ele>
        <time>2020-05-25T16:34:07Z</time>
      </trkpt>
      <trkpt lat="43.60022" lon="1.17061">
        <ele>259</ele>
        <time>2020-05-25T16:34:14Z</time>
      </trkpt>
      <trkpt lat="43.60029" lon="1.17051">
        <ele>267</ele>
        <time>2020-05-25T16:34:24Z</time>
      </trkpt>
      <trkpt lat="43.60037" lon="1.17044">
        <ele>273</ele>
        <time>2020-05-25T16:34:33Z</time>
      </trkpt>
      <trkpt lat="43.60045" lon="1.17037">
        <ele>274</ele>
        <time>2020-05-25T16:34:40Z</time>
      </trkpt>
      <trkpt lat="43.60054" lon="1.17028">
        <ele>275</ele>
        <time>2020-05-25T16:34:48Z</time>
      </trkpt>
      <trkpt lat="43.60061" lon="1.1702">
        <ele>275</ele>
        <time>2020-05-25T16:34:55Z</time>
      </trkpt>
      <trkpt lat="43.60067" lon="1.1701">
        <ele>276</ele>
        <time>2020-05-25T16:35:02Z</time>
      </trkpt>
      <trkpt lat="43.6007" lon="1.16999">
        <ele>276</ele>
        <time>2020-05-25T16:35:09Z</time>
      </trkpt>
      <trkpt lat="43.60073" lon="1.16987">
        <ele>276</ele>
        <time>2020-05-25T16:35:17Z</time>
      </trkpt>
      <trkpt lat="43.60078" lon="1.16974">
        <ele>277</ele>
        <time>2020-05-25T16:35:24Z</time>
      </trkpt>
      <trkpt lat="43.60083" lon="1.16963">
        <ele>279</ele>
        <time>2020-05-25T16:35:32Z</time>
      </trkpt>
      <trkpt lat="43.60086" lon="1.1695">
        <ele>280</ele>
        <time>2020-05-25T16:35:39Z</time>
      </trkpt>
      <trkpt lat="43.60085" lon="1.16937">
        <ele>278</ele>
        <time>2020-05-25T16:35:47Z</time>
      </trkpt>
      <trkpt lat="43.60089" lon="1.16925">
        <ele>278</ele>
        <time>2020-05-25T16:35:54Z</time>
      </trkpt>
      <trkpt lat="43.60095" lon="1.16915">
        <ele>278</ele>
        <time>2020-05-25T16:36:02Z</time>
      </trkpt>
      <trkpt lat="43.60101" lon="1.16904">
        <ele>277</ele>
        <time>2020-05-25T16:36:09Z</time>
      </trkpt>
      <trkpt lat="43.60103" lon="1.16891">
        <ele>278</ele>
        <time>2020-05-25T16:36:17Z</time>
      </trkpt>
      <trkpt lat="43.60106" lon="1.16878">
        <ele>279</ele>
        <time>2020-05-25T16:36:24Z</time>
      </trkpt>
      <trkpt lat="43.60108" lon="1.16866">
        <ele>278</ele>
        <time>2020-05-25T16:36:31Z</time>
      </trkpt>
      <trkpt lat="43.60109" lon="1.16853">
        <ele>278</ele>
        <time>2020-05-25T16:36:38Z</time>
      </trkpt>
      <trkpt lat="43.60112" lon="1.1684">
        <ele>277</ele>
        <time>2020-05-25T16:36:46Z</time>
      </trkpt>
      <trkpt lat="43.60117" lon="1.16828">
        <ele>277</ele>
        <time>2020-05-25T16:36:54Z</time>
      </trkpt>
      <trkpt lat="43.60121" lon="1.16816">
        <ele>275</ele>
        <time>2020-05-25T16:37:01Z</time>
      </trkpt>
      <trkpt lat="43.6012" lon="1.16803">
        <ele>271</ele>
        <time>2020-05-25T16:37:09Z</time>
      </trkpt>
      <trkpt lat="43.60119" lon="1.1679">
        <ele>267</ele>
        <time>2020-05-25T16:37:17Z</time>
      </trkpt>
      <trkpt lat="43.60117" lon="1.16777">
        <ele>266</ele>
        <time>2020-05-25T16:37:24Z</time>
      </trkpt>
      <trkpt lat="43.60115" lon="1.16764">
        <ele>267</ele>
        <time>2020-05-25T16:37:32Z</time>
      </trkpt>
      <trkpt lat="43.60114" lon="1.16752">
        <ele>267</ele>
        <time>2020-05-25T16:37:39Z</time>
      </trkpt>
      <trkpt lat="43.60111" lon="1.16729">
        <ele>285.8</ele>
        <time>2020-05-25T16:37:52Z</time>
      </trkpt>
      <trkpt lat="43.6011" lon="1.16705">
        <ele>286</ele>
        <time>2020-05-25T16:38:05Z</time>
      </trkpt>
      <trkpt lat="43.60109" lon="1.16692">
        <ele>286.1</ele>
        <time>2020-05-25T16:38:13Z</time>
      </trkpt>
      <trkpt lat="43.60108" lon="1.16673">
        <ele>286.8</ele>
        <time>2020-05-25T16:38:23Z</time>
      </trkpt>
      <trkpt lat="43.60112" lon="1.1662">
        <ele>287</ele>
        <time>2020-05-25T16:38:53Z</time>
      </trkpt>
      <trkpt lat="43.60114" lon="1.16605">
        <ele>287.1</ele>
        <time>2020-05-25T16:39:02Z</time>
      </trkpt>
      <trkpt lat="43.60115" lon="1.16585">
        <ele>287.8</ele>
        <time>2020-05-25T16:39:13Z</time>
      </trkpt>
      <trkpt lat="43.60107" lon="1.16569">
        <ele>288</ele>
        <time>2020-05-25T16:39:24Z</time>
      </trkpt>
      <trkpt lat="43.60108" lon="1.16551">
        <ele>288.2</ele>
        <time>2020-05-25T16:39:34Z</time>
      </trkpt>
      <trkpt lat="43.60131" lon="1.16546">
        <ele>287.6</ele>
        <time>2020-05-25T16:39:52Z</time>
      </trkpt>
      <trkpt lat="43.60153" lon="1.16543">
        <ele>286.7</ele>
        <time>2020-05-25T16:40:09Z</time>
      </trkpt>
      <trkpt lat="43.60172" lon="1.16541">
        <ele>261</ele>
        <time>2020-05-25T16:40:24Z</time>
      </trkpt>
      <trkpt lat="43.60179" lon="1.16535">
        <ele>261</ele>
        <time>2020-05-25T16:40:31Z</time>
      </trkpt>
      <trkpt lat="43.60187" lon="1.16526">
        <ele>261</ele>
        <time>2020-05-25T16:40:38Z</time>
      </trkpt>
      <trkpt lat="43.60196" lon="1.16521">
        <ele>262</ele>
        <time>2020-05-25T16:40:46Z</time>
      </trkpt>
      <trkpt lat="43.60206" lon="1.16516">
        <ele>263</ele>
        <time>2020-05-25T16:40:54Z</time>
      </trkpt>
      <trkpt lat="43.60215" lon="1.16514">
        <ele>264</ele>
        <time>2020-05-25T16:41:01Z</time>
      </trkpt>
      <trkpt lat="43.60224" lon="1.16508">
        <ele>266</ele>
        <time>2020-05-25T16:41:09Z</time>
      </trkpt>
      <trkpt lat="43.60233" lon="1.16505">
        <ele>269</ele>
        <time>2020-05-25T16:41:16Z</time>
      </trkpt>
      <trkpt lat="43.60242" lon="1.16503">
        <ele>270</ele>
        <time>2020-05-25T16:41:23Z</time>
      </trkpt>
      <trkpt lat="43.6025" lon="1.16496">
        <ele>270</ele>
        <time>2020-05-25T16:41:30Z</time>
      </trkpt>
      <trkpt lat="43.60257" lon="1.16488">
        <ele>269</ele>
        <time>2020-05-25T16:41:38Z</time>
      </trkpt>
      <trkpt lat="43.60267" lon="1.16487">
        <ele>267</ele>
        <time>2020-05-25T16:41:45Z</time>
      </trkpt>
      <trkpt lat="43.60276" lon="1.16482">
        <ele>267</ele>
        <time>2020-05-25T16:41:52Z</time>
      </trkpt>
      <trkpt lat="43.60284" lon="1.16476">
        <ele>267</ele>
        <time>2020-05-25T16:42:00Z</time>
      </trkpt>
      <trkpt lat="43.60293" lon="1.16471">
        <ele>262</ele>
        <time>2020-05-25T16:42:08Z</time>
      </trkpt>
      <trkpt lat="43.603" lon="1.16463">
        <ele>262</ele>
        <time>2020-05-25T16:42:15Z</time>
      </trkpt>
      <trkpt lat="43.6031" lon="1.16459">
        <ele>263</ele>
        <time>2020-05-25T16:42:23Z</time>
      </trkpt>
      <trkpt lat="43.60318" lon="1.16456">
        <ele>262</ele>
        <time>2020-05-25T16:42:30Z</time>
      </trkpt>
      <trkpt lat="43.60329" lon="1.16454">
        <ele>260</ele>
        <time>2020-05-25T16:42:38Z</time>
      </trkpt>
      <trkpt lat="43.60338" lon="1.16451">
        <ele>259</ele>
        <time>2020-05-25T16:42:46Z</time>
      </trkpt>
      <trkpt lat="43.60347" lon="1.16445">
        <ele>258</ele>
        <time>2020-05-25T16:42:53Z</time>
      </trkpt>
      <trkpt lat="43.60357" lon="1.16444">
        <ele>258</ele>
        <time>2020-05-25T16:43:01Z</time>
      </trkpt>
      <trkpt lat="43.60366" lon="1.16446">
        <ele>260</ele>
        <time>2020-05-25T16:43:08Z</time>
      </trkpt>
      <trkpt lat="43.60372" lon="1.16456">
        <ele>262</ele>
        <time>2020-05-25T16:43:16Z</time>
      </trkpt>
      <trkpt lat="43.60376" lon="1.16469">
        <ele>265</ele>
        <time>2020-05-25T16:43:23Z</time>
      </trkpt>
      <trkpt lat="43.60378" lon="1.16482">
        <ele>267</ele>
        <time>2020-05-25T16:43:31Z</time>
      </trkpt>
      <trkpt lat="43.60385" lon="1.16492">
        <ele>269</ele>
        <time>2020-05-25T16:43:39Z</time>
      </trkpt>
      <trkpt lat="43.60388" lon="1.16505">
        <ele>272</ele>
        <time>2020-05-25T16:43:47Z</time>
      </trkpt>
      <trkpt lat="43.60389" lon="1.16518">
        <ele>273</ele>
        <time>2020-05-25T16:43:54Z</time>
      </trkpt>
      <trkpt lat="43.60393" lon="1.1653">
        <ele>273</ele>
        <time>2020-05-25T16:44:02Z</time>
      </trkpt>
      <trkpt lat="43.60397" lon="1.16543">
        <ele>272</ele>
        <time>2020-05-25T16:44:09Z</time>
      </trkpt>
      <trkpt lat="43.604" lon="1.16556">
        <ele>270</ele>
        <time>2020-05-25T16:44:17Z</time>
      </trkpt>
      <trkpt lat="43.60402" lon="1.16569">
        <ele>270</ele>
        <time>2020-05-25T16:44:25Z</time>
      </trkpt>
      <trkpt lat="43.60405" lon="1.16581">
        <ele>270</ele>
        <time>2020-05-25T16:44:32Z</time>
      </trkpt>
      <trkpt lat="43.6041" lon="1.16594">
        <ele>270</ele>
        <time>2020-05-25T16:44:40Z</time>
      </trkpt>
      <trkpt lat="43.60415" lon="1.16605">
        <ele>270</ele>
        <time>2020-05-25T16:44:47Z</time>
      </trkpt>
      <trkpt lat="43.60418" lon="1.16618">
        <ele>269</ele>
        <time>2020-05-25T16:44:55Z</time>
      </trkpt>
      <trkpt lat="43.60421" lon="1.1663">
        <ele>267</ele>
        <time>2020-05-25T16:45:02Z</time>
      </trkpt>
      <trkpt lat="43.60423" lon="1.16642">
        <ele>267</ele>
        <time>2020-05-25T16:45:09Z</time>
      </trkpt>
      <trkpt lat="43.60432" lon="1.16647">
        <ele>263</ele>
        <time>2020-05-25T16:45:17Z</time>
      </trkpt>
      <trkpt lat="43.60441" lon="1.16651">
        <ele>262</ele>
        <time>2020-05-25T16:45:24Z</time>
      </trkpt>
      <trkpt lat="43.60451" lon="1.16655">
        <ele>261</ele>
        <time>2020-05-25T16:45:32Z</time>
      </trkpt>
      <trkpt lat="43.6046" lon="1.16663">
        <ele>262</ele>
        <time>2020-05-25T16:45:41Z</time>
      </trkpt>
      <trkpt lat="43.60468" lon="1.1667">
        <ele>262</ele>
        <time>2020-05-25T16:45:48Z</time>
      </trkpt>
      <trkpt lat="43.60475" lon="1.1668">
        <ele>261</ele>
        <time>2020-05-25T16:45:56Z</time>
      </trkpt>
      <trkpt lat="43.60482" lon="1.16688">
        <ele>262</ele>
        <time>2020-05-25T16:46:03Z</time>
      </trkpt>
      <trkpt lat="43.60489" lon="1.16696">
        <ele>262</ele>
        <time>2020-05-25T16:46:10Z</time>
      </trkpt>
      <trkpt lat="43.60494" lon="1.16707">
        <ele>262</ele>
        <time>2020-05-25T16:46:17Z</time>
      </trkpt>
      <trkpt lat="43.605" lon="1.16716">
        <ele>262</ele>
        <time>2020-05-25T16:46:24Z</time>
      </trkpt>
      <trkpt lat="43.60507" lon="1.16724">
        <ele>263</ele>
        <time>2020-05-25T16:46:31Z</time>
      </trkpt>
      <trkpt lat="43.60516" lon="1.16728">
        <ele>263</ele>
        <time>2020-05-25T16:46:38Z</time>
      </trkpt>
      <trkpt lat="43.60525" lon="1.16734">
        <ele>263</ele>
        <time>2020-05-25T16:46:46Z</time>
      </trkpt>
      <trkpt lat="43.60532" lon="1.16743">
        <ele>270</ele>
        <time>2020-05-25T16:46:53Z</time>
      </trkpt>
      <trkpt lat="43.60538" lon="1.16749">
        <ele>270</ele>
        <time>2020-05-25T16:46:59Z</time>
      </trkpt>
      <trkpt lat="43.60547" lon="1.16756">
        <ele>269.9</ele>
        <time>2020-05-25T16:47:07Z</time>
      </trkpt>
      <trkpt lat="43.60551" lon="1.16764">
        <ele>269.6</ele>
        <time>2020-05-25T16:47:12Z</time>
      </trkpt>
      <trkpt lat="43.60555" lon="1.1677">
        <ele>269.3</ele>
        <time>2020-05-25T16:47:17Z</time>
      </trkpt>
      <trkpt lat="43.60556" lon="1.16774">
        <ele>269.1</ele>
        <time>2020-05-25T16:47:19Z</time>
      </trkpt>
      <trkpt lat="43.60559" lon="1.16778">
        <ele>269</ele>
        <time>2020-05-25T16:47:23Z</time>
      </trkpt>
      <trkpt lat="43.60563" lon="1.16783">
        <ele>269</ele>
        <time>2020-05-25T16:47:26Z</time>
      </trkpt>
      <trkpt lat="43.60569" lon="1.16793">
        <ele>268.8</ele>
        <time>2020-05-25T16:47:33Z</time>
      </trkpt>
      <trkpt lat="43.60571" lon="1.16807">
        <ele>262</ele>
        <time>2020-05-25T16:47:42Z</time>
      </trkpt>
      <trkpt lat="43.60573" lon="1.1682">
        <ele>264</ele>
        <time>2020-05-25T16:47:49Z</time>
      </trkpt>
      <trkpt lat="43.60576" lon="1.16833">
        <ele>267</ele>
        <time>2020-05-25T16:47:57Z</time>
      </trkpt>
      <trkpt lat="43.60582" lon="1.16842">
        <ele>269</ele>
        <time>2020-05-25T16:48:04Z</time>
      </trkpt>
      <trkpt lat="43.60588" lon="1.16852">
        <ele>272</ele>
        <time>2020-05-25T16:48:12Z</time>
      </trkpt>
      <trkpt lat="43.60592" lon="1.16865">
        <ele>270</ele>
        <time>2020-05-25T16:48:20Z</time>
      </trkpt>
      <trkpt lat="43.60599" lon="1.16874">
        <ele>267</ele>
        <time>2020-05-25T16:48:27Z</time>
      </trkpt>
      <trkpt lat="43.60606" lon="1.16883">
        <ele>266</ele>
        <time>2020-05-25T16:48:35Z</time>
      </trkpt>
      <trkpt lat="43.60614" lon="1.16892">
        <ele>265</ele>
        <time>2020-05-25T16:48:43Z</time>
      </trkpt>
      <trkpt lat="43.60619" lon="1.16903">
        <ele>266</ele>
        <time>2020-05-25T16:48:50Z</time>
      </trkpt>
      <trkpt lat="43.60622" lon="1.16916">
        <ele>268</ele>
        <time>2020-05-25T16:48:58Z</time>
      </trkpt>
      <trkpt lat="43.60626" lon="1.16928">
        <ele>268</ele>
        <time>2020-05-25T16:49:06Z</time>
      </trkpt>
      <trkpt lat="43.60633" lon="1.16939">
        <ele>267</ele>
        <time>2020-05-25T16:49:13Z</time>
      </trkpt>
      <trkpt lat="43.60631" lon="1.16954">
        <ele>267</ele>
        <time>2020-05-25T16:49:22Z</time>
      </trkpt>
      <trkpt lat="43.6063" lon="1.16967">
        <ele>267</ele>
        <time>2020-05-25T16:49:29Z</time>
      </trkpt>
      <trkpt lat="43.60636" lon="1.16978">
        <ele>268</ele>
        <time>2020-05-25T16:49:37Z</time>
      </trkpt>
      <trkpt lat="43.60637" lon="1.16991">
        <ele>268</ele>
        <time>2020-05-25T16:49:44Z</time>
      </trkpt>
      <trkpt lat="43.60633" lon="1.17006">
        <ele>267</ele>
        <time>2020-05-25T16:49:53Z</time>
      </trkpt>
      <trkpt lat="43.60635" lon="1.17018">
        <ele>266</ele>
        <time>2020-05-25T16:50:00Z</time>
      </trkpt>
      <trkpt lat="43.6064" lon="1.17029">
        <ele>266</ele>
        <time>2020-05-25T16:50:07Z</time>
      </trkpt>
      <trkpt lat="43.60646" lon="1.17038">
        <ele>265</ele>
        <time>2020-05-25T16:50:14Z</time>
      </trkpt>
      <trkpt lat="43.60651" lon="1.17052">
        <ele>263</ele>
        <time>2020-05-25T16:50:23Z</time>
      </trkpt>
      <trkpt lat="43.60654" lon="1.17065">
        <ele>259</ele>
        <time>2020-05-25T16:50:31Z</time>
      </trkpt>
      <trkpt lat="43.60663" lon="1.17071">
        <ele>256</ele>
        <time>2020-05-25T16:50:39Z</time>
      </trkpt>
      <trkpt lat="43.60668" lon="1.17081">
        <ele>258</ele>
        <time>2020-05-25T16:50:46Z</time>
      </trkpt>
      <trkpt lat="43.60671" lon="1.17094">
        <ele>256</ele>
        <time>2020-05-25T16:50:54Z</time>
      </trkpt>
      <trkpt lat="43.60669" lon="1.17107">
        <ele>254</ele>
        <time>2020-05-25T16:51:01Z</time>
      </trkpt>
      <trkpt lat="43.60668" lon="1.17119">
        <ele>253</ele>
        <time>2020-05-25T16:51:08Z</time>
      </trkpt>
      <trkpt lat="43.60675" lon="1.17128">
        <ele>251</ele>
        <time>2020-05-25T16:51:16Z</time>
      </trkpt>
      <trkpt lat="43.60681" lon="1.17138">
        <ele>251</ele>
        <time>2020-05-25T16:51:23Z</time>
      </trkpt>
      <trkpt lat="43.60688" lon="1.1715">
        <ele>252</ele>
        <time>2020-05-25T16:51:32Z</time>
      </trkpt>
      <trkpt lat="43.60691" lon="1.17162">
        <ele>254</ele>
        <time>2020-05-25T16:51:39Z</time>
      </trkpt>
      <trkpt lat="43.60691" lon="1.17175">
        <ele>254</ele>
        <time>2020-05-25T16:51:46Z</time>
      </trkpt>
      <trkpt lat="43.60696" lon="1.17186">
        <ele>254</ele>
        <time>2020-05-25T16:51:53Z</time>
      </trkpt>
      <trkpt lat="43.60698" lon="1.172">
        <ele>255</ele>
        <time>2020-05-25T16:52:01Z</time>
      </trkpt>
      <trkpt lat="43.60703" lon="1.17211">
        <ele>253</ele>
        <time>2020-05-25T16:52:09Z</time>
      </trkpt>
      <trkpt lat="43.60708" lon="1.17222">
        <ele>251</ele>
        <time>2020-05-25T16:52:16Z</time>
      </trkpt>
      <trkpt lat="43.60716" lon="1.1723">
        <ele>252</ele>
        <time>2020-05-25T16:52:24Z</time>
      </trkpt>
      <trkpt lat="43.60722" lon="1.1724">
        <ele>254</ele>
        <time>2020-05-25T16:52:31Z</time>
      </trkpt>
      <trkpt lat="43.60727" lon="1.17252">
        <ele>256</ele>
        <time>2020-05-25T16:52:39Z</time>
      </trkpt>
      <trkpt lat="43.60731" lon="1.17263">
        <ele>258</ele>
        <time>2020-05-25T16:52:46Z</time>
      </trkpt>
      <trkpt lat="43.60736" lon="1.17274">
        <ele>260</ele>
        <time>2020-05-25T16:52:53Z</time>
      </trkpt>
      <trkpt lat="43.60741" lon="1.17285">
        <ele>262</ele>
        <time>2020-05-25T16:53:01Z</time>
      </trkpt>
      <trkpt lat="43.6075" lon="1.17291">
        <ele>265</ele>
        <time>2020-05-25T16:53:09Z</time>
      </trkpt>
      <trkpt lat="43.60758" lon="1.17299">
        <ele>267</ele>
        <time>2020-05-25T16:53:16Z</time>
      </trkpt>
      <trkpt lat="43.60766" lon="1.17304">
        <ele>267</ele>
        <time>2020-05-25T16:53:23Z</time>
      </trkpt>
      <trkpt lat="43.60775" lon="1.17306">
        <ele>267</ele>
        <time>2020-05-25T16:53:30Z</time>
      </trkpt>
      <trkpt lat="43.60783" lon="1.17311">
        <ele>268</ele>
        <time>2020-05-25T16:53:37Z</time>
      </trkpt>
      <trkpt lat="43.60792" lon="1.17317">
        <ele>268</ele>
        <time>2020-05-25T16:53:45Z</time>
      </trkpt>
      <trkpt lat="43.60801" lon="1.17323">
        <ele>267</ele>
        <time>2020-05-25T16:53:53Z</time>
      </trkpt>
      <trkpt lat="43.60809" lon="1.17329">
        <ele>266</ele>
        <time>2020-05-25T16:54:00Z</time>
      </trkpt>
      <trkpt lat="43.60818" lon="1.17337">
        <ele>266</ele>
        <time>2020-05-25T16:54:08Z</time>
      </trkpt>
      <trkpt lat="43.60827" lon="1.17343">
        <ele>265</ele>
        <time>2020-05-25T16:54:15Z</time>
      </trkpt>
      <trkpt lat="43.60835" lon="1.17348">
        <ele>265</ele>
        <time>2020-05-25T16:54:22Z</time>
      </trkpt>
      <trkpt lat="43.60844" lon="1.17352">
        <ele>264</ele>
        <time>2020-05-25T16:54:29Z</time>
      </trkpt>
      <trkpt lat="43.60844" lon="1.17365">
        <ele>261</ele>
        <time>2020-05-25T16:54:37Z</time>
      </trkpt>
      <trkpt lat="43.6084" lon="1.17377">
        <ele>261</ele>
        <time>2020-05-25T16:54:44Z</time>
      </trkpt>
      <trkpt lat="43.60834" lon="1.17387">
        <ele>262</ele>
        <time>2020-05-25T16:54:52Z</time>
      </trkpt>
      <trkpt lat="43.60826" lon="1.17393">
        <ele>261</ele>
        <time>2020-05-25T16:54:59Z</time>
      </trkpt>
      <trkpt lat="43.60817" lon="1.17398">
        <ele>260</ele>
        <time>2020-05-25T16:55:06Z</time>
      </trkpt>
      <trkpt lat="43.60809" lon="1.17403">
        <ele>260</ele>
        <time>2020-05-25T16:55:13Z</time>
      </trkpt>
      <trkpt lat="43.608" lon="1.17411">
        <ele>262</ele>
        <time>2020-05-25T16:55:21Z</time>
      </trkpt>
      <trkpt lat="43.60791" lon="1.17412">
        <ele>264</ele>
        <time>2020-05-25T16:55:29Z</time>
      </trkpt>
      <trkpt lat="43.60781" lon="1.17417">
        <ele>262</ele>
        <time>2020-05-25T16:55:36Z</time>
      </trkpt>
      <trkpt lat="43.60772" lon="1.17421">
        <ele>261</ele>
        <time>2020-05-25T16:55:44Z</time>
      </trkpt>
      <trkpt lat="43.60763" lon="1.17425">
        <ele>260</ele>
        <time>2020-05-25T16:55:51Z</time>
      </trkpt>
      <trkpt lat="43.60747" lon="1.17434">
        <ele>270.7</ele>
        <time>2020-05-25T16:56:05Z</time>
      </trkpt>
      <trkpt lat="43.60707" lon="1.17455">
        <ele>272.7</ele>
        <time>2020-05-25T16:56:37Z</time>
      </trkpt>
      <trkpt lat="43.60725" lon="1.17471">
        <ele>272.9</ele>
        <time>2020-05-25T16:56:53Z</time>
      </trkpt>
      <trkpt lat="43.60738" lon="1.17501">
        <ele>262</ele>
        <time>2020-05-25T16:57:13Z</time>
      </trkpt>
      <trkpt lat="43.6074" lon="1.17516">
        <ele>263</ele>
        <time>2020-05-25T16:57:21Z</time>
      </trkpt>
      <trkpt lat="43.60739" lon="1.17528">
        <ele>264</ele>
        <time>2020-05-25T16:57:28Z</time>
      </trkpt>
      <trkpt lat="43.60741" lon="1.17541">
        <ele>261</ele>
        <time>2020-05-25T16:57:36Z</time>
      </trkpt>
      <trkpt lat="43.60747" lon="1.17554">
        <ele>261</ele>
        <time>2020-05-25T16:57:44Z</time>
      </trkpt>
      <trkpt lat="43.60749" lon="1.17566">
        <ele>260</ele>
        <time>2020-05-25T16:57:52Z</time>
      </trkpt>
      <trkpt lat="43.60754" lon="1.17578">
        <ele>259</ele>
        <time>2020-05-25T16:57:59Z</time>
      </trkpt>
      <trkpt lat="43.60758" lon="1.17589">
        <ele>260</ele>
        <time>2020-05-25T16:58:06Z</time>
      </trkpt>
      <trkpt lat="43.60763" lon="1.176">
        <ele>262</ele>
        <time>2020-05-25T16:58:14Z</time>
      </trkpt>
      <trkpt lat="43.60767" lon="1.17612">
        <ele>262</ele>
        <time>2020-05-25T16:58:21Z</time>
      </trkpt>
      <trkpt lat="43.60769" lon="1.17626">
        <ele>261</ele>
        <time>2020-05-25T16:58:29Z</time>
      </trkpt>
      <trkpt lat="43.60775" lon="1.17638">
        <ele>257</ele>
        <time>2020-05-25T16:58:37Z</time>
      </trkpt>
      <trkpt lat="43.60781" lon="1.17647">
        <ele>255</ele>
        <time>2020-05-25T16:58:45Z</time>
      </trkpt>
      <trkpt lat="43.60785" lon="1.17661">
        <ele>254</ele>
        <time>2020-05-25T16:58:53Z</time>
      </trkpt>
      <trkpt lat="43.6079" lon="1.17673">
        <ele>253</ele>
        <time>2020-05-25T16:59:01Z</time>
      </trkpt>
      <trkpt lat="43.60794" lon="1.17686">
        <ele>256</ele>
        <time>2020-05-25T16:59:09Z</time>
      </trkpt>
      <trkpt lat="43.60791" lon="1.17698">
        <ele>255</ele>
        <time>2020-05-25T16:59:16Z</time>
      </trkpt>
      <trkpt lat="43.60799" lon="1.17705">
        <ele>256</ele>
        <time>2020-05-25T16:59:23Z</time>
      </trkpt>
      <trkpt lat="43.60804" lon="1.17717">
        <ele>260</ele>
        <time>2020-05-25T16:59:31Z</time>
      </trkpt>
      <trkpt lat="43.60809" lon="1.17729">
        <ele>264</ele>
        <time>2020-05-25T16:59:40Z</time>
      </trkpt>
      <trkpt lat="43.60813" lon="1.17741">
        <ele>268</ele>
        <time>2020-05-25T16:59:48Z</time>
      </trkpt>
      <trkpt lat="43.60818" lon="1.17752">
        <ele>270</ele>
        <time>2020-05-25T16:59:55Z</time>
      </trkpt>
      <trkpt lat="43.6082" lon="1.17766">
        <ele>270</ele>
        <time>2020-05-25T17:00:02Z</time>
      </trkpt>
      <trkpt lat="43.60822" lon="1.17779">
        <ele>269</ele>
        <time>2020-05-25T17:00:10Z</time>
      </trkpt>
      <trkpt lat="43.60825" lon="1.17792">
        <ele>270</ele>
        <time>2020-05-25T17:00:18Z</time>
      </trkpt>
      <trkpt lat="43.6083" lon="1.17803">
        <ele>273</ele>
        <time>2020-05-25T17:00:25Z</time>
      </trkpt>
      <trkpt lat="43.60836" lon="1.17815">
        <ele>273</ele>
        <time>2020-05-25T17:00:33Z</time>
      </trkpt>
      <trkpt lat="43.60841" lon="1.17826">
        <ele>275</ele>
        <time>2020-05-25T17:00:41Z</time>
      </trkpt>
      <trkpt lat="43.60846" lon="1.17838">
        <ele>277</ele>
        <time>2020-05-25T17:00:48Z</time>
      </trkpt>
      <trkpt lat="43.60911" lon="1.17906">
        <ele>273</ele>
        <time>2020-05-25T17:01:51Z</time>
      </trkpt>
      <trkpt lat="43.60995" lon="1.17936">
        <ele>272.2</ele>
        <time>2020-05-25T17:02:58Z</time>
      </trkpt>
      <trkpt lat="43.61069" lon="1.17987">
        <ele>270.5</ele>
        <time>2020-05-25T17:04:02Z</time>
      </trkpt>
      <trkpt lat="43.61138" lon="1.1806">
        <ele>266.1</ele>
        <time>2020-05-25T17:05:09Z</time>
      </trkpt>
      <trkpt lat="43.61167" lon="1.18096">
        <ele>262.9</ele>
        <time>2020-05-25T17:05:39Z</time>
      </trkpt>
      <trkpt lat="43.61222" lon="1.18129">
        <ele>258</ele>
        <time>2020-05-25T17:06:25Z</time>
      </trkpt>
      <trkpt lat="43.61248" lon="1.18172">
        <ele>258.1</ele>
        <time>2020-05-25T17:06:56Z</time>
      </trkpt>
      <trkpt lat="43.61379" lon="1.1861">
        <ele>239</ele>
        <time>2020-05-25T17:11:21Z</time>
      </trkpt>
      <trkpt lat="43.61383" lon="1.18622">
        <ele>239</ele>
        <time>2020-05-25T17:11:28Z</time>
      </trkpt>
      <trkpt lat="43.61384" lon="1.18634">
        <ele>238</ele>
        <time>2020-05-25T17:11:35Z</time>
      </trkpt>
      <trkpt lat="43.61387" lon="1.18647">
        <ele>237</ele>
        <time>2020-05-25T17:11:43Z</time>
      </trkpt>
      <trkpt lat="43.61393" lon="1.18657">
        <ele>240</ele>
        <time>2020-05-25T17:11:50Z</time>
      </trkpt>
      <trkpt lat="43.61398" lon="1.18668">
        <ele>242</ele>
        <time>2020-05-25T17:11:58Z</time>
      </trkpt>
      <trkpt lat="43.61403" lon="1.1868">
        <ele>243</ele>
        <time>2020-05-25T17:12:05Z</time>
      </trkpt>
      <trkpt lat="43.61406" lon="1.18693">
        <ele>244</ele>
        <time>2020-05-25T17:12:13Z</time>
      </trkpt>
      <trkpt lat="43.6141" lon="1.18706">
        <ele>245</ele>
        <time>2020-05-25T17:12:21Z</time>
      </trkpt>
      <trkpt lat="43.61412" lon="1.1872">
        <ele>246</ele>
        <time>2020-05-25T17:12:28Z</time>
      </trkpt>
      <trkpt lat="43.61416" lon="1.18732">
        <ele>246</ele>
        <time>2020-05-25T17:12:36Z</time>
      </trkpt>
      <trkpt lat="43.61415" lon="1.18745">
        <ele>245</ele>
        <time>2020-05-25T17:12:43Z</time>
      </trkpt>
      <trkpt lat="43.61419" lon="1.18757">
        <ele>242</ele>
        <time>2020-05-25T17:12:51Z</time>
      </trkpt>
      <trkpt lat="43.61422" lon="1.18769">
        <ele>239</ele>
        <time>2020-05-25T17:12:58Z</time>
      </trkpt>
      <trkpt lat="43.61427" lon="1.1878">
        <ele>239</ele>
        <time>2020-05-25T17:13:05Z</time>
      </trkpt>
      <trkpt lat="43.61432" lon="1.1879">
        <ele>238</ele>
        <time>2020-05-25T17:13:13Z</time>
      </trkpt>
      <trkpt lat="43.61435" lon="1.18804">
        <ele>238</ele>
        <time>2020-05-25T17:13:20Z</time>
      </trkpt>
      <trkpt lat="43.61438" lon="1.18816">
        <ele>236</ele>
        <time>2020-05-25T17:13:28Z</time>
      </trkpt>
      <trkpt lat="43.61442" lon="1.18828">
        <ele>235</ele>
        <time>2020-05-25T17:13:35Z</time>
      </trkpt>
      <trkpt lat="43.61453" lon="1.1887">
        <ele>237.7</ele>
        <time>2020-05-25T17:14:00Z</time>
      </trkpt>
      <trkpt lat="43.61465" lon="1.18916">
        <ele>227</ele>
        <time>2020-05-25T17:14:27Z</time>
      </trkpt>
      <trkpt lat="43.6147" lon="1.18926">
        <ele>224</ele>
        <time>2020-05-25T17:14:35Z</time>
      </trkpt>
      <trkpt lat="43.61473" lon="1.1894">
        <ele>222</ele>
        <time>2020-05-25T17:14:43Z</time>
      </trkpt>
      <trkpt lat="43.6148" lon="1.18952">
        <ele>223</ele>
        <time>2020-05-25T17:14:51Z</time>
      </trkpt>
      <trkpt lat="43.61486" lon="1.18963">
        <ele>225</ele>
        <time>2020-05-25T17:14:59Z</time>
      </trkpt>
      <trkpt lat="43.61488" lon="1.18975">
        <ele>226</ele>
        <time>2020-05-25T17:15:06Z</time>
      </trkpt>
      <trkpt lat="43.61491" lon="1.18987">
        <ele>229</ele>
        <time>2020-05-25T17:15:14Z</time>
      </trkpt>
      <trkpt lat="43.61489" lon="1.19">
        <ele>229</ele>
        <time>2020-05-25T17:15:21Z</time>
      </trkpt>
      <trkpt lat="43.61483" lon="1.1901">
        <ele>230</ele>
        <time>2020-05-25T17:15:28Z</time>
      </trkpt>
      <trkpt lat="43.61478" lon="1.19021">
        <ele>228</ele>
        <time>2020-05-25T17:15:35Z</time>
      </trkpt>
      <trkpt lat="43.61472" lon="1.1903">
        <ele>226</ele>
        <time>2020-05-25T17:15:43Z</time>
      </trkpt>
      <trkpt lat="43.61464" lon="1.19037">
        <ele>221</ele>
        <time>2020-05-25T17:15:51Z</time>
      </trkpt>
      <trkpt lat="43.61459" lon="1.19047">
        <ele>220</ele>
        <time>2020-05-25T17:15:58Z</time>
      </trkpt>
      <trkpt lat="43.61455" lon="1.1906">
        <ele>221</ele>
        <time>2020-05-25T17:16:05Z</time>
      </trkpt>
      <trkpt lat="43.61452" lon="1.19072">
        <ele>222</ele>
        <time>2020-05-25T17:16:13Z</time>
      </trkpt>
      <trkpt lat="43.61446" lon="1.19083">
        <ele>224</ele>
        <time>2020-05-25T17:16:20Z</time>
      </trkpt>
      <trkpt lat="43.61441" lon="1.19093">
        <ele>226</ele>
        <time>2020-05-25T17:16:27Z</time>
      </trkpt>
      <trkpt lat="43.61438" lon="1.19105">
        <ele>228</ele>
        <time>2020-05-25T17:16:35Z</time>
      </trkpt>
      <trkpt lat="43.61434" lon="1.19117">
        <ele>225</ele>
        <time>2020-05-25T17:16:42Z</time>
      </trkpt>
      <trkpt lat="43.61418" lon="1.19162">
        <ele>234.9</ele>
        <time>2020-05-25T17:17:10Z</time>
      </trkpt>
      <trkpt lat="43.61413" lon="1.19219">
        <ele>235.9</ele>
        <time>2020-05-25T17:17:42Z</time>
      </trkpt>
      <trkpt lat="43.61404" lon="1.19238">
        <ele>224</ele>
        <time>2020-05-25T17:17:55Z</time>
      </trkpt>
      <trkpt lat="43.61396" lon="1.19243">
        <ele>227</ele>
        <time>2020-05-25T17:18:02Z</time>
      </trkpt>
      <trkpt lat="43.61386" lon="1.19245">
        <ele>228</ele>
        <time>2020-05-25T17:18:10Z</time>
      </trkpt>
      <trkpt lat="43.61377" lon="1.19252">
        <ele>229</ele>
        <time>2020-05-25T17:18:18Z</time>
      </trkpt>
      <trkpt lat="43.6137" lon="1.1926">
        <ele>231</ele>
        <time>2020-05-25T17:18:25Z</time>
      </trkpt>
      <trkpt lat="43.6136" lon="1.19262">
        <ele>233</ele>
        <time>2020-05-25T17:18:33Z</time>
      </trkpt>
      <trkpt lat="43.61349" lon="1.19268">
        <ele>235</ele>
        <time>2020-05-25T17:18:42Z</time>
      </trkpt>
      <trkpt lat="43.6134" lon="1.19273">
        <ele>236</ele>
        <time>2020-05-25T17:18:50Z</time>
      </trkpt>
      <trkpt lat="43.61332" lon="1.1928">
        <ele>237</ele>
        <time>2020-05-25T17:18:57Z</time>
      </trkpt>
      <trkpt lat="43.61322" lon="1.19284">
        <ele>238</ele>
        <time>2020-05-25T17:19:05Z</time>
      </trkpt>
      <trkpt lat="43.61313" lon="1.19287">
        <ele>238</ele>
        <time>2020-05-25T17:19:12Z</time>
      </trkpt>
      <trkpt lat="43.61305" lon="1.19293">
        <ele>238</ele>
        <time>2020-05-25T17:19:19Z</time>
      </trkpt>
      <trkpt lat="43.61296" lon="1.19295">
        <ele>237</ele>
        <time>2020-05-25T17:19:26Z</time>
      </trkpt>
      <trkpt lat="43.61288" lon="1.19301">
        <ele>239</ele>
        <time>2020-05-25T17:19:34Z</time>
      </trkpt>
      <trkpt lat="43.61279" lon="1.19304">
        <ele>241</ele>
        <time>2020-05-25T17:19:41Z</time>
      </trkpt>
      <trkpt lat="43.6127" lon="1.1931">
        <ele>240</ele>
        <time>2020-05-25T17:19:48Z</time>
      </trkpt>
      <trkpt lat="43.61261" lon="1.19311">
        <ele>241</ele>
        <time>2020-05-25T17:19:55Z</time>
      </trkpt>
      <trkpt lat="43.61251" lon="1.19317">
        <ele>241</ele>
        <time>2020-05-25T17:20:04Z</time>
      </trkpt>
      <trkpt lat="43.61242" lon="1.19321">
        <ele>241</ele>
        <time>2020-05-25T17:20:11Z</time>
      </trkpt>
      <trkpt lat="43.61235" lon="1.1933">
        <ele>240</ele>
        <time>2020-05-25T17:20:18Z</time>
      </trkpt>
      <trkpt lat="43.61228" lon="1.19339">
        <ele>240</ele>
        <time>2020-05-25T17:20:26Z</time>
      </trkpt>
      <trkpt lat="43.6118" lon="1.19358">
        <ele>237</ele>
        <time>2020-05-25T17:21:04Z</time>
      </trkpt>
      <trkpt lat="43.61163" lon="1.19367">
        <ele>250</ele>
        <time>2020-05-25T17:21:18Z</time>
      </trkpt>
      <trkpt lat="43.61153" lon="1.1937">
        <ele>251</ele>
        <time>2020-05-25T17:21:26Z</time>
      </trkpt>
      <trkpt lat="43.61143" lon="1.19374">
        <ele>250</ele>
        <time>2020-05-25T17:21:34Z</time>
      </trkpt>
      <trkpt lat="43.61133" lon="1.19375">
        <ele>251</ele>
        <time>2020-05-25T17:21:42Z</time>
      </trkpt>
      <trkpt lat="43.61123" lon="1.19379">
        <ele>251</ele>
        <time>2020-05-25T17:21:50Z</time>
      </trkpt>
      <trkpt lat="43.61115" lon="1.19386">
        <ele>249</ele>
        <time>2020-05-25T17:21:57Z</time>
      </trkpt>
      <trkpt lat="43.61101" lon="1.19402">
        <ele>235</ele>
        <time>2020-05-25T17:22:12Z</time>
      </trkpt>
      <trkpt lat="43.61083" lon="1.1941">
        <ele>235.1</ele>
        <time>2020-05-25T17:22:26Z</time>
      </trkpt>
      <trkpt lat="43.61058" lon="1.1942">
        <ele>223</ele>
        <time>2020-05-25T17:22:46Z</time>
      </trkpt>
      <trkpt lat="43.61031" lon="1.19438">
        <ele>239.5</ele>
        <time>2020-05-25T17:23:09Z</time>
      </trkpt>
      <trkpt lat="43.60999" lon="1.1946">
        <ele>234</ele>
        <time>2020-05-25T17:23:36Z</time>
      </trkpt>
      <trkpt lat="43.60989" lon="1.19458">
        <ele>233</ele>
        <time>2020-05-25T17:23:44Z</time>
      </trkpt>
      <trkpt lat="43.60983" lon="1.19449">
        <ele>227</ele>
        <time>2020-05-25T17:23:53Z</time>
      </trkpt>
      <trkpt lat="43.60977" lon="1.19439">
        <ele>225</ele>
        <time>2020-05-25T17:24:00Z</time>
      </trkpt>
      <trkpt lat="43.6097" lon="1.1943">
        <ele>224</ele>
        <time>2020-05-25T17:24:07Z</time>
      </trkpt>
      <trkpt lat="43.60964" lon="1.19418">
        <ele>222</ele>
        <time>2020-05-25T17:24:15Z</time>
      </trkpt>
      <trkpt lat="43.6096" lon="1.19406">
        <ele>221</ele>
        <time>2020-05-25T17:24:23Z</time>
      </trkpt>
      <trkpt lat="43.60955" lon="1.19395">
        <ele>219</ele>
        <time>2020-05-25T17:24:30Z</time>
      </trkpt>
      <trkpt lat="43.60948" lon="1.19385">
        <ele>218</ele>
        <time>2020-05-25T17:24:38Z</time>
      </trkpt>
      <trkpt lat="43.60943" lon="1.19373">
        <ele>218</ele>
        <time>2020-05-25T17:24:46Z</time>
      </trkpt>
      <trkpt lat="43.60936" lon="1.19362">
        <ele>217</ele>
        <time>2020-05-25T17:24:54Z</time>
      </trkpt>
      <trkpt lat="43.60931" lon="1.1935">
        <ele>216</ele>
        <time>2020-05-25T17:25:01Z</time>
      </trkpt>
      <trkpt lat="43.60925" lon="1.1934">
        <ele>214</ele>
        <time>2020-05-25T17:25:09Z</time>
      </trkpt>
      <trkpt lat="43.60922" lon="1.19329">
        <ele>213</ele>
        <time>2020-05-25T17:25:16Z</time>
      </trkpt>
      <trkpt lat="43.60915" lon="1.19319">
        <ele>210</ele>
        <time>2020-05-25T17:25:24Z</time>
      </trkpt>
      <trkpt lat="43.60907" lon="1.19312">
        <ele>209</ele>
        <time>2020-05-25T17:25:31Z</time>
      </trkpt>
      <trkpt lat="43.609" lon="1.19304">
        <ele>208</ele>
        <time>2020-05-25T17:25:38Z</time>
      </trkpt>
      <trkpt lat="43.60894" lon="1.19295">
        <ele>206</ele>
        <time>2020-05-25T17:25:45Z</time>
      </trkpt>
      <trkpt lat="43.60887" lon="1.19286">
        <ele>204</ele>
        <time>2020-05-25T17:25:52Z</time>
      </trkpt>
      <trkpt lat="43.60883" lon="1.19274">
        <ele>201</ele>
        <time>2020-05-25T17:26:00Z</time>
      </trkpt>
      <trkpt lat="43.60878" lon="1.19263">
        <ele>203</ele>
        <time>2020-05-25T17:26:07Z</time>
      </trkpt>
      <trkpt lat="43.60874" lon="1.19249">
        <ele>204</ele>
        <time>2020-05-25T17:26:16Z</time>
      </trkpt>
      <trkpt lat="43.60867" lon="1.1924">
        <ele>206</ele>
        <time>2020-05-25T17:26:23Z</time>
      </trkpt>
      <trkpt lat="43.60863" lon="1.19229">
        <ele>208</ele>
        <time>2020-05-25T17:26:30Z</time>
      </trkpt>
      <trkpt lat="43.60857" lon="1.1922">
        <ele>210</ele>
        <time>2020-05-25T17:26:37Z</time>
      </trkpt>
      <trkpt lat="43.60852" lon="1.19209">
        <ele>212</ele>
        <time>2020-05-25T17:26:45Z</time>
      </trkpt>
      <trkpt lat="43.6085" lon="1.19196">
        <ele>214</ele>
        <time>2020-05-25T17:26:52Z</time>
      </trkpt>
      <trkpt lat="43.60845" lon="1.19186">
        <ele>210</ele>
        <time>2020-05-25T17:26:59Z</time>
      </trkpt>
      <trkpt lat="43.6084" lon="1.19175">
        <ele>211</ele>
        <time>2020-05-25T17:27:07Z</time>
      </trkpt>
      <trkpt lat="43.60834" lon="1.19165">
        <ele>213</ele>
        <time>2020-05-25T17:27:14Z</time>
      </trkpt>
      <trkpt lat="43.60827" lon="1.19155">
        <ele>213</ele>
        <time>2020-05-25T17:27:22Z</time>
      </trkpt>
      <trkpt lat="43.60818" lon="1.1915">
        <ele>216</ele>
        <time>2020-05-25T17:27:29Z</time>
      </trkpt>
      <trkpt lat="43.6081" lon="1.19142">
        <ele>218</ele>
        <time>2020-05-25T17:27:37Z</time>
      </trkpt>
      <trkpt lat="43.60804" lon="1.19131">
        <ele>218</ele>
        <time>2020-05-25T17:27:45Z</time>
      </trkpt>
      <trkpt lat="43.60796" lon="1.19123">
        <ele>216</ele>
        <time>2020-05-25T17:27:52Z</time>
      </trkpt>
      <trkpt lat="43.60787" lon="1.19116">
        <ele>216</ele>
        <time>2020-05-25T17:28:00Z</time>
      </trkpt>
      <trkpt lat="43.6078" lon="1.19109">
        <ele>217</ele>
        <time>2020-05-25T17:28:07Z</time>
      </trkpt>
      <trkpt lat="43.60774" lon="1.19098">
        <ele>217</ele>
        <time>2020-05-25T17:28:15Z</time>
      </trkpt>
      <trkpt lat="43.60766" lon="1.1909">
        <ele>218</ele>
        <time>2020-05-25T17:28:22Z</time>
      </trkpt>
      <trkpt lat="43.60761" lon="1.19079">
        <ele>219</ele>
        <time>2020-05-25T17:28:30Z</time>
      </trkpt>
      <trkpt lat="43.60755" lon="1.19069">
        <ele>221</ele>
        <time>2020-05-25T17:28:37Z</time>
      </trkpt>
      <trkpt lat="43.60747" lon="1.19062">
        <ele>222</ele>
        <time>2020-05-25T17:28:44Z</time>
      </trkpt>
      <trkpt lat="43.60738" lon="1.19054">
        <ele>223</ele>
        <time>2020-05-25T17:28:52Z</time>
      </trkpt>
      <trkpt lat="43.6073" lon="1.19047">
        <ele>225</ele>
        <time>2020-05-25T17:29:00Z</time>
      </trkpt>
      <trkpt lat="43.60723" lon="1.19038">
        <ele>227</ele>
        <time>2020-05-25T17:29:07Z</time>
      </trkpt>
      <trkpt lat="43.60714" lon="1.19034">
        <ele>230</ele>
        <time>2020-05-25T17:29:15Z</time>
      </trkpt>
      <trkpt lat="43.60709" lon="1.19021">
        <ele>232</ele>
        <time>2020-05-25T17:29:23Z</time>
      </trkpt>
      <trkpt lat="43.60706" lon="1.19008">
        <ele>231</ele>
        <time>2020-05-25T17:29:31Z</time>
      </trkpt>
      <trkpt lat="43.60706" lon="1.18995">
        <ele>228</ele>
        <time>2020-05-25T17:29:39Z</time>
      </trkpt>
      <trkpt lat="43.60701" lon="1.18984">
        <ele>228</ele>
        <time>2020-05-25T17:29:46Z</time>
      </trkpt>
      <trkpt lat="43.60693" lon="1.18976">
        <ele>228</ele>
        <time>2020-05-25T17:29:53Z</time>
      </trkpt>
      <trkpt lat="43.60685" lon="1.18972">
        <ele>229</ele>
        <time>2020-05-25T17:30:01Z</time>
      </trkpt>
      <trkpt lat="43.60675" lon="1.18975">
        <ele>230</ele>
        <time>2020-05-25T17:30:08Z</time>
      </trkpt>
      <trkpt lat="43.60666" lon="1.1897">
        <ele>231</ele>
        <time>2020-05-25T17:30:16Z</time>
      </trkpt>
      <trkpt lat="43.60657" lon="1.18965">
        <ele>233</ele>
        <time>2020-05-25T17:30:24Z</time>
      </trkpt>
      <trkpt lat="43.60648" lon="1.18959">
        <ele>232</ele>
        <time>2020-05-25T17:30:31Z</time>
      </trkpt>
      <trkpt lat="43.60641" lon="1.1895">
        <ele>231</ele>
        <time>2020-05-25T17:30:38Z</time>
      </trkpt>
      <trkpt lat="43.60634" lon="1.18942">
        <ele>230</ele>
        <time>2020-05-25T17:30:46Z</time>
      </trkpt>
      <trkpt lat="43.60627" lon="1.18933">
        <ele>228</ele>
        <time>2020-05-25T17:30:53Z</time>
      </trkpt>
      <trkpt lat="43.60622" lon="1.18924">
        <ele>227</ele>
        <time>2020-05-25T17:31:00Z</time>
      </trkpt>
      <trkpt lat="43.60615" lon="1.18914">
        <ele>226</ele>
        <time>2020-05-25T17:31:07Z</time>
      </trkpt>
      <trkpt lat="43.60606" lon="1.18908">
        <ele>225</ele>
        <time>2020-05-25T17:31:15Z</time>
      </trkpt>
      <trkpt lat="43.60597" lon="1.18901">
        <ele>224</ele>
        <time>2020-05-25T17:31:23Z</time>
      </trkpt>
      <trkpt lat="43.60589" lon="1.18893">
        <ele>221</ele>
        <time>2020-05-25T17:31:30Z</time>
      </trkpt>
      <trkpt lat="43.60582" lon="1.18886">
        <ele>220</ele>
        <time>2020-05-25T17:31:38Z</time>
      </trkpt>
      <trkpt lat="43.60574" lon="1.18878">
        <ele>220</ele>
        <time>2020-05-25T17:31:45Z</time>
      </trkpt>
      <trkpt lat="43.60565" lon="1.18874">
        <ele>221</ele>
        <time>2020-05-25T17:31:53Z</time>
      </trkpt>
      <trkpt lat="43.60555" lon="1.18871">
        <ele>222</ele>
        <time>2020-05-25T17:32:00Z</time>
      </trkpt>
      <trkpt lat="43.60548" lon="1.18862">
        <ele>222</ele>
        <time>2020-05-25T17:32:07Z</time>
      </trkpt>
      <trkpt lat="43.60541" lon="1.18854">
        <ele>223</ele>
        <time>2020-05-25T17:32:14Z</time>
      </trkpt>
      <trkpt lat="43.60532" lon="1.18847">
        <ele>223</ele>
        <time>2020-05-25T17:32:23Z</time>
      </trkpt>
      <trkpt lat="43.60523" lon="1.18842">
        <ele>221</ele>
        <time>2020-05-25T17:32:30Z</time>
      </trkpt>
      <trkpt lat="43.60517" lon="1.18831">
        <ele>218</ele>
        <time>2020-05-25T17:32:38Z</time>
      </trkpt>
      <trkpt lat="43.60509" lon="1.18823">
        <ele>218</ele>
        <time>2020-05-25T17:32:46Z</time>
      </trkpt>
      <trkpt lat="43.605" lon="1.18817">
        <ele>217</ele>
        <time>2020-05-25T17:32:53Z</time>
      </trkpt>
      <trkpt lat="43.60491" lon="1.18813">
        <ele>218</ele>
        <time>2020-05-25T17:33:01Z</time>
      </trkpt>
      <trkpt lat="43.60484" lon="1.18806">
        <ele>219</ele>
        <time>2020-05-25T17:33:08Z</time>
      </trkpt>
      <trkpt lat="43.60476" lon="1.18798">
        <ele>221</ele>
        <time>2020-05-25T17:33:15Z</time>
      </trkpt>
      <trkpt lat="43.6047" lon="1.18789">
        <ele>222</ele>
        <time>2020-05-25T17:33:22Z</time>
      </trkpt>
      <trkpt lat="43.60461" lon="1.18783">
        <ele>225</ele>
        <time>2020-05-25T17:33:30Z</time>
      </trkpt>
      <trkpt lat="43.60452" lon="1.18778">
        <ele>226</ele>
        <time>2020-05-25T17:33:38Z</time>
      </trkpt>
      <trkpt lat="43.60443" lon="1.18774">
        <ele>228</ele>
        <time>2020-05-25T17:33:45Z</time>
      </trkpt>
      <trkpt lat="43.60434" lon="1.18771">
        <ele>231</ele>
        <time>2020-05-25T17:33:52Z</time>
      </trkpt>
      <trkpt lat="43.60426" lon="1.18763">
        <ele>235</ele>
        <time>2020-05-25T17:34:00Z</time>
      </trkpt>
      <trkpt lat="43.60418" lon="1.18757">
        <ele>237</ele>
        <time>2020-05-25T17:34:08Z</time>
      </trkpt>
      <trkpt lat="43.60409" lon="1.18751">
        <ele>238</ele>
        <time>2020-05-25T17:34:15Z</time>
      </trkpt>
      <trkpt lat="43.604" lon="1.18746">
        <ele>240</ele>
        <time>2020-05-25T17:34:23Z</time>
      </trkpt>
      <trkpt lat="43.60392" lon="1.18738">
        <ele>241</ele>
        <time>2020-05-25T17:34:30Z</time>
      </trkpt>
      <trkpt lat="43.60384" lon="1.18732">
        <ele>241</ele>
        <time>2020-05-25T17:34:37Z</time>
      </trkpt>
      <trkpt lat="43.60377" lon="1.18724">
        <ele>240</ele>
        <time>2020-05-25T17:34:44Z</time>
      </trkpt>
      <trkpt lat="43.60369" lon="1.18719">
        <ele>239</ele>
        <time>2020-05-25T17:34:51Z</time>
      </trkpt>
      <trkpt lat="43.60363" lon="1.18708">
        <ele>234</ele>
        <time>2020-05-25T17:35:00Z</time>
      </trkpt>
      <trkpt lat="43.60358" lon="1.18697">
        <ele>234</ele>
        <time>2020-05-25T17:35:07Z</time>
      </trkpt>
      <trkpt lat="43.60348" lon="1.18691">
        <ele>234</ele>
        <time>2020-05-25T17:35:15Z</time>
      </trkpt>
      <trkpt lat="43.6034" lon="1.18686">
        <ele>234</ele>
        <time>2020-05-25T17:35:22Z</time>
      </trkpt>
      <trkpt lat="43.60336" lon="1.18674">
        <ele>234</ele>
        <time>2020-05-25T17:35:30Z</time>
      </trkpt>
      <trkpt lat="43.6033" lon="1.18664">
        <ele>233</ele>
        <time>2020-05-25T17:35:37Z</time>
      </trkpt>
      <trkpt lat="43.60321" lon="1.1866">
        <ele>232</ele>
        <time>2020-05-25T17:35:44Z</time>
      </trkpt>
      <trkpt lat="43.60312" lon="1.18654">
        <ele>232</ele>
        <time>2020-05-25T17:35:52Z</time>
      </trkpt>
      <trkpt lat="43.60303" lon="1.18646">
        <ele>231</ele>
        <time>2020-05-25T17:36:00Z</time>
      </trkpt>
      <trkpt lat="43.60297" lon="1.18637">
        <ele>231</ele>
        <time>2020-05-25T17:36:07Z</time>
      </trkpt>
      <trkpt lat="43.60287" lon="1.18634">
        <ele>230</ele>
        <time>2020-05-25T17:36:15Z</time>
      </trkpt>
      <trkpt lat="43.60279" lon="1.18628">
        <ele>229</ele>
        <time>2020-05-25T17:36:22Z</time>
      </trkpt>
      <trkpt lat="43.6027" lon="1.18623">
        <ele>229</ele>
        <time>2020-05-25T17:36:29Z</time>
      </trkpt>
      <trkpt lat="43.60262" lon="1.18615">
        <ele>230</ele>
        <time>2020-05-25T17:36:37Z</time>
      </trkpt>
      <trkpt lat="43.60254" lon="1.18609">
        <ele>230</ele>
        <time>2020-05-25T17:36:44Z</time>
      </trkpt>
      <trkpt lat="43.60246" lon="1.18602">
        <ele>229</ele>
        <time>2020-05-25T17:36:51Z</time>
      </trkpt>
      <trkpt lat="43.60236" lon="1.18603">
        <ele>229</ele>
        <time>2020-05-25T17:36:59Z</time>
      </trkpt>
      <trkpt lat="43.60231" lon="1.18593">
        <ele>228</ele>
        <time>2020-05-25T17:37:06Z</time>
      </trkpt>
      <trkpt lat="43.60225" lon="1.18583">
        <ele>228</ele>
        <time>2020-05-25T17:37:13Z</time>
      </trkpt>
      <trkpt lat="43.60216" lon="1.18578">
        <ele>230</ele>
        <time>2020-05-25T17:37:20Z</time>
      </trkpt>
      <trkpt lat="43.60208" lon="1.18573">
        <ele>230</ele>
        <time>2020-05-25T17:37:27Z</time>
      </trkpt>
      <trkpt lat="43.60198" lon="1.1857">
        <ele>229</ele>
        <time>2020-05-25T17:37:34Z</time>
      </trkpt>
      <trkpt lat="43.60189" lon="1.18564">
        <ele>231</ele>
        <time>2020-05-25T17:37:43Z</time>
      </trkpt>
      <trkpt lat="43.6018" lon="1.18559">
        <ele>234</ele>
        <time>2020-05-25T17:37:50Z</time>
      </trkpt>
      <trkpt lat="43.60174" lon="1.18548">
        <ele>234</ele>
        <time>2020-05-25T17:37:58Z</time>
      </trkpt>
      <trkpt lat="43.60166" lon="1.1854">
        <ele>235</ele>
        <time>2020-05-25T17:38:06Z</time>
      </trkpt>
      <trkpt lat="43.60156" lon="1.18536">
        <ele>240</ele>
        <time>2020-05-25T17:38:14Z</time>
      </trkpt>
      <trkpt lat="43.6015" lon="1.18527">
        <ele>241</ele>
        <time>2020-05-25T17:38:21Z</time>
      </trkpt>
      <trkpt lat="43.60141" lon="1.18523">
        <ele>242</ele>
        <time>2020-05-25T17:38:29Z</time>
      </trkpt>
      <trkpt lat="43.60132" lon="1.1852">
        <ele>244</ele>
        <time>2020-05-25T17:38:36Z</time>
      </trkpt>
      <trkpt lat="43.60124" lon="1.18512">
        <ele>244</ele>
        <time>2020-05-25T17:38:44Z</time>
      </trkpt>
      <trkpt lat="43.60117" lon="1.18503">
        <ele>245</ele>
        <time>2020-05-25T17:38:51Z</time>
      </trkpt>
      <trkpt lat="43.60108" lon="1.18496">
        <ele>244</ele>
        <time>2020-05-25T17:38:59Z</time>
      </trkpt>
      <trkpt lat="43.60101" lon="1.18489">
        <ele>243</ele>
        <time>2020-05-25T17:39:06Z</time>
      </trkpt>
      <trkpt lat="43.60092" lon="1.18482">
        <ele>244</ele>
        <time>2020-05-25T17:39:13Z</time>
      </trkpt>
      <trkpt lat="43.60083" lon="1.18479">
        <ele>245</ele>
        <time>2020-05-25T17:39:20Z</time>
      </trkpt>
      <trkpt lat="43.60076" lon="1.1847">
        <ele>244</ele>
        <time>2020-05-25T17:39:28Z</time>
      </trkpt>
      <trkpt lat="43.60068" lon="1.18462">
        <ele>244</ele>
        <time>2020-05-25T17:39:36Z</time>
      </trkpt>
      <trkpt lat="43.6006" lon="1.18455">
        <ele>243</ele>
        <time>2020-05-25T17:39:43Z</time>
      </trkpt>
      <trkpt lat="43.60051" lon="1.1845">
        <ele>243</ele>
        <time>2020-05-25T17:39:50Z</time>
      </trkpt>
      <trkpt lat="43.60043" lon="1.18442">
        <ele>244</ele>
        <time>2020-05-25T17:39:58Z</time>
      </trkpt>
      <trkpt lat="43.60035" lon="1.18435">
        <ele>245</ele>
        <time>2020-05-25T17:40:06Z</time>
      </trkpt>
      <trkpt lat="43.60026" lon="1.18429">
        <ele>247</ele>
        <time>2020-05-25T17:40:13Z</time>
      </trkpt>
      <trkpt lat="43.60017" lon="1.18433">
        <ele>247</ele>
        <time>2020-05-25T17:40:20Z</time>
      </trkpt>
      <trkpt lat="43.6001" lon="1.18442">
        <ele>247</ele>
        <time>2020-05-25T17:40:28Z</time>
      </trkpt>
      <trkpt lat="43.60006" lon="1.18453">
        <ele>247</ele>
        <time>2020-05-25T17:40:35Z</time>
      </trkpt>
      <trkpt lat="43.60001" lon="1.18466">
        <ele>246</ele>
        <time>2020-05-25T17:40:43Z</time>
      </trkpt>
      <trkpt lat="43.6" lon="1.18479">
        <ele>245</ele>
        <time>2020-05-25T17:40:50Z</time>
      </trkpt>
      <trkpt lat="43.59995" lon="1.18491">
        <ele>246</ele>
        <time>2020-05-25T17:40:58Z</time>
      </trkpt>
      <trkpt lat="43.59988" lon="1.18501">
        <ele>247</ele>
        <time>2020-05-25T17:41:06Z</time>
      </trkpt>
      <trkpt lat="43.59982" lon="1.1851">
        <ele>247</ele>
        <time>2020-05-25T17:41:13Z</time>
      </trkpt>
      <trkpt lat="43.59978" lon="1.18522">
        <ele>248</ele>
        <time>2020-05-25T17:41:20Z</time>
      </trkpt>
      <trkpt lat="43.59973" lon="1.18533">
        <ele>247</ele>
        <time>2020-05-25T17:41:28Z</time>
      </trkpt>
      <trkpt lat="43.59967" lon="1.18544">
        <ele>248</ele>
        <time>2020-05-25T17:41:35Z</time>
      </trkpt>
      <trkpt lat="43.59961" lon="1.18555">
        <ele>247</ele>
        <time>2020-05-25T17:41:43Z</time>
      </trkpt>
      <trkpt lat="43.59956" lon="1.18566">
        <ele>241</ele>
        <time>2020-05-25T17:41:51Z</time>
      </trkpt>
      <trkpt lat="43.59953" lon="1.18578">
        <ele>239</ele>
        <time>2020-05-25T17:41:59Z</time>
      </trkpt>
      <trkpt lat="43.59952" lon="1.18592">
        <ele>237</ele>
        <time>2020-05-25T17:42:07Z</time>
      </trkpt>
      <trkpt lat="43.59947" lon="1.18604">
        <ele>237</ele>
        <time>2020-05-25T17:42:14Z</time>
      </trkpt>
      <trkpt lat="43.59944" lon="1.18616">
        <ele>239</ele>
        <time>2020-05-25T17:42:22Z</time>
      </trkpt>
      <trkpt lat="43.59938" lon="1.18627">
        <ele>238</ele>
        <time>2020-05-25T17:42:29Z</time>
      </trkpt>
      <trkpt lat="43.59932" lon="1.18637">
        <ele>238</ele>
        <time>2020-05-25T17:42:37Z</time>
      </trkpt>
      <trkpt lat="43.59927" lon="1.18649">
        <ele>238</ele>
        <time>2020-05-25T17:42:44Z</time>
      </trkpt>
      <trkpt lat="43.59919" lon="1.18655">
        <ele>238</ele>
        <time>2020-05-25T17:42:51Z</time>
      </trkpt>
      <trkpt lat="43.59911" lon="1.18662">
        <ele>238</ele>
        <time>2020-05-25T17:42:59Z</time>
      </trkpt>
      <trkpt lat="43.59902" lon="1.18666">
        <ele>237</ele>
        <time>2020-05-25T17:43:06Z</time>
      </trkpt>
      <trkpt lat="43.59894" lon="1.18661">
        <ele>236</ele>
        <time>2020-05-25T17:43:13Z</time>
      </trkpt>
      <trkpt lat="43.59884" lon="1.18659">
        <ele>236</ele>
        <time>2020-05-25T17:43:20Z</time>
      </trkpt>
      <trkpt lat="43.59875" lon="1.18659">
        <ele>236</ele>
        <time>2020-05-25T17:43:27Z</time>
      </trkpt>
      <trkpt lat="43.59864" lon="1.18659">
        <ele>236</ele>
        <time>2020-05-25T17:43:36Z</time>
      </trkpt>
      <trkpt lat="43.59855" lon="1.18662">
        <ele>238</ele>
        <time>2020-05-25T17:43:43Z</time>
      </trkpt>
    </trkseg>
  </trk>
</gpx>